メインページ
METAR-TAF:

METAR-TAF

空港 :

ブリッジポート, コネチカット州, アメリカ合衆国

緯度: 41-09-30N, 経度: 073-07-44W, 海抜: 3m

現時点の気象観測

当レポートは1時間12分前の03:52(UTC)に作成
北/北東の風 12kt、最大21ktの突風を伴う
気温 10°C
湿度 76%
気圧 1011 hPa
視程: 16.1km
高度2400ftの千切れ雲あり
高度3300ftの曇り

METAR: KBDR 040352Z AUTO 02012G21KT 10SM BKN024 OVC033 10/06 A2986 RMK AO2 SLP112 T01000056

時間: 01:04 (05:04 UTC)

予報

当レポートは2時間33分前の02:31(UTC)に作成
予報は04日の 03時(UTC)から 04日の 24時(UTC)まで有効
の風 14kt、最大21ktの突風を伴う
視程: 10km
高度3000ftの曇り
04日の 1500時(UTC)から
北東の風 10kt
視程: 10km
高度3500ftの千切れ雲あり
04日の 1900時(UTC)から
の風 10kt
視程: 10km
高度3500ftの千切れ雲あり

TAF: KBDR 040231Z 0403/0424 01014G21KT P6SM OVC030 FM041500 04010KT P6SM BKN035 FM041900 08010KT P6SM BKN035

4,000以上の空港の気象観測と天気予報(METAR報とTAF報)

利用可能な観測所は地図上に黄色い丸と赤い丸で示す。

丸の上にカーソルを重ねると観測所名を参照できる。

次にクリックすると気象観測と天気予報を参照できる。

マップの切り替え:黒色「×」印の緑ボタンをクリックして拡大、「-」印の緑ボタンをクリックして縮小、緑色の三角印をクリックして隣りの地図に切り替え


METAR-TAF: